Terminal Aerodrome Forecast
Issued by NWS

Home | Current Version | Previous Version | Text Only | Print | Product List | Glossary Off
Versions: 1 2 3 4 5 6 7 8 9 10 11 12 13 14 15 16 17 18 19 20 21

000
FTUS43 KGRB 241552 AAC
TAFRHI
TAF AMD
KRHI 241552Z 2416/2512 22007KT 6SM -SHRADZ BR OVC007
      TEMPO 2416/2417 3SM -SHRA BKN006
     FM241800 25008KT P6SM BKN014
     FM242000 26008KT P6SM BKN030
     FM242100 26008KT P6SM BKN050
     FM242200 27004KT P6SM SCT200=

USA.gov is the U.S. government's official web portal to all federal, state and local government web resources and services.